Time;durP1;ratioP1;P1;durP2;ratioP2;P2;SDS_P1;SDS_P2;PMS_P1;PMS_P2;Temp;Humidity;BMP_temperature;BMP_pressure;BME280_temperature;BME280_humidity;BME280_pressure;Samples;Min_cycle;Max_cycle;Signal;HPM_P1;HPM_P2
2023/04/04 10:13:28;;;;;;;;;;;;;;;;;;356865;27;1368;-52
2023/04/04 10:13:43;;;;;;;;;;;;;;;;;;356888;27;754;-53
2023/04/04 10:13:56;;;;;;;;;;;;;;;;;;356857;27;983;-53
2023/04/04 10:14:08;;;;;;;;;;;;;;;;;;356909;27;746;-53
2023/04/04 10:14:32;;;;;;;;;;;;;;;;;;356739;27;961;-53
2023/04/04 10:14:42;;;;;;;;;;;;;;;;;;356854;27;916;-53
2023/04/04 10:15:48;;;;;;;;;;;;;;;;;;351152;27;1961;-69
2023/04/04 10:15:59;;;;;;;;;;;;;;;;;;351170;28;925;-70
2023/04/04 10:16:10;;;;;;;;;;;;;;;;;;351206;28;813;-70
2023/04/04 10:16:22;;;;;;;;;;;;;;;;;;351070;28;976;-72
2023/04/04 10:16:36;;;;;;;;;;;;;;;;;;352441;28;948;-70
2023/04/04 10:16:46;;;;;;;;;;;;;;;;;;352472;28;929;-74
2023/04/04 10:16:57;;;;;;;;;;;;;;;;;;352496;28;891;-71
2023/04/04 10:17:12;;;;;;;;;;;;;;;;;;352506;28;976;-75
2023/04/04 10:17:24;;;;;;;;;;;;;;;;;;351119;28;1525;-73
2023/04/04 10:17:38;;;;;;;;;;;;;;;;;;352376;28;937;-70
2023/04/04 10:17:52;;;;;;;;;;;;;;;;;;352452;28;996;-73
2023/04/04 10:18:02;;;;;;;;;;;;;;;;;;352549;28;885;-72
2023/04/04 10:18:13;;;;;;;;;;;;;;;;;;352682;28;806;-71
2023/04/04 10:18:25;;;;;;;;;;;;;;;;;;353892;28;904;-69
2023/04/04 10:18:35;;;;;;;;;;;;;;;;;;350356;28;1372;-68
2023/04/04 10:18:46;;;;;;;;;;;;;;;;;;350921;28;858;-70
2023/04/04 10:18:57;;;;;;;;;;;;;;;;;;351065;28;917;-71
2023/04/04 10:19:08;;;;;;;;;;;;;;;;;;350971;28;880;-69
2023/04/04 10:19:19;;;;;;;;;;;;;;;;;;350780;28;1078;-72
2023/04/04 10:19:30;;;;;;;;;;;;;;;;;;351111;28;814;-73
2023/04/04 10:19:40;;;;;;;;;;;;;;;;;;351073;28;901;-76
2023/04/04 10:19:51;;;;;;;;;;;;;;;;;;351353;28;829;-75
2023/04/04 10:20:04;;;;;;;;;;;;;;;;;;351163;28;905;-74
2023/04/04 10:20:14;;;;;;;;;;;;;;;;;;351070;28;1027;-76
2023/04/04 10:20:26;;;;;;;;;;;;;;;;;;351306;28;874;-78
2023/04/04 10:20:37;;;;;;;;;;;;;;;;;;351064;28;893;-80
2023/04/04 10:20:48;;;;;;;;;;;;;;;;;;351045;28;897;-79
2023/04/04 10:21:03;;;;;;;;;;;;;;;;;;351004;28;1027;-74
2023/04/04 10:21:13;;;;;;;;;;;;;;;;;;351130;28;881;-73
2023/04/04 10:21:25;;;;;;;;;;;;;;;;;;351039;28;1015;-76
2023/04/04 10:21:36;;;;;;;;;;;;;;;;;;351156;28;868;-70
2023/04/04 10:21:46;;;;;;;;;;;;;;;;;;351237;28;882;-71
2023/04/04 10:21:58;;;;;;;;;;;;;;;;;;351219;28;889;-71
2023/04/04 10:22:10;;;;;;;;;;;;;;;;;;351277;28;941;-75
2023/04/04 10:22:22;;;;;;;;;;;;;;;;;;351464;28;917;-75
2023/04/04 10:22:33;;;;;;;;;;;;;;;;;;351176;28;929;-74
2023/04/04 10:22:44;;;;;;;;;;;;;;;;;;352440;28;1204;-71
2023/04/04 10:22:55;;;;;;;;;;;;;;;;;;352625;28;976;-71
2023/04/04 10:23:06;;;;;;;;;;;;;;;;;;352860;28;755;-70
2023/04/04 10:23:16;;;;;;;;;;;;;;;;;;352553;28;937;-73
2023/04/04 10:23:27;;;;;;;;;;;;;;;;;;352525;28;896;-71
2023/04/04 10:23:39;;;;;;;;;;;;;;;;;;352499;28;972;-75
2023/04/04 10:23:51;;;;;;;;;;;;;;;;;;352498;28;1023;-72
2023/04/04 10:24:07;;;;;;;;;;;;;;;;;;351758;28;1507;-74
2023/04/04 10:24:18;;;;;;;;;;;;;;;;;;352624;28;924;-72
2023/04/04 10:24:28;;;;;;;;;;;;;;;;;;352572;28;972;-72
2023/04/04 10:24:39;;;;;;;;;;;;;;;;;;351967;28;830;-72
2023/04/04 10:24:49;;;;;;;;;;;;;;;;;;351072;28;996;-70
2023/04/04 10:25:00;;;;;;;;;;;;;;;;;;351049;28;934;-73
2023/04/04 10:25:10;;;;;;;;;;;;;;;;;;351104;28;988;-75
2023/04/04 10:25:22;;;;;;;;;;;;;;;;;;351034;28;838;-77
2023/04/04 10:25:32;;;;;;;;;;;;;;;;;;351127;28;795;-79
2023/04/04 10:25:43;;;;;;;;;;;;;;;;;;351091;28;1024;-73
2023/04/04 10:25:54;;;;;;;;;;;;;;;;;;351087;28;822;-77
2023/04/04 10:26:05;;;;;;;;;;;;;;;;;;351350;28;723;-79
2023/04/04 10:26:15;;;;;;;;;;;;;;;;;;351061;28;1035;-77
2023/04/04 10:26:26;;;;;;;;;;;;;;;;;;351075;28;1083;-73
2023/04/04 10:26:36;;;;;;;;;;;;;;;;;;351072;28;1031;-75
2023/04/04 10:26:47;;;;;;;;;;;;;;;;;;351114;28;1027;-72
2023/04/04 10:26:57;;;;;;;;;;;;;;;;;;351255;28;971;-74
2023/04/04 10:27:08;;;;;;;;;;;;;;;;;;351057;28;913;-76
2023/04/04 10:27:19;;;;;;;;;;;;;;;;;;351073;28;981;-75
2023/04/04 10:27:30;;;;;;;;;;;;;;;;;;351008;28;1461;-78
2023/04/04 10:27:40;;;;;;;;;;;;;;;;;;351031;28;945;-75
2023/04/04 10:27:51;;;;;;;;;;;;;;;;;;351100;28;813;-79
2023/04/04 10:28:01;;;;;;;;;;;;;;;;;;351097;28;810;-79
2023/04/04 10:28:11;;;;;;;;;;;;;;;;;;350506;28;1508;-74
2023/04/04 10:28:22;;;;;;;;;;;;;;;;;;350726;28;1039;-76
2023/04/04 10:28:33;;;;;;;;;;;;;;;;;;350963;28;1233;-78
2023/04/04 10:28:44;;;;;;;;;;;;;;;;;;351013;28;1047;-74
2023/04/04 10:28:55;;;;;;;;;;;;;;;;;;351128;28;818;-78
2023/04/04 10:29:06;;;;;;;;;;;;;;;;;;351061;28;996;-72
2023/04/04 10:29:17;;;;;;;;;;;;;;;;;;351035;28;957;-75
2023/04/04 10:29:27;;;;;;;;;;;;;;;;;;349573;28;960;-74
2023/04/04 10:29:38;;;;;;;;;;;;;;;;;;349662;28;964;-74
2023/04/04 10:29:48;;;;;;;;;;;;;;;;;;350208;28;1509;-77
2023/04/04 10:29:59;;;;;;;;;;;;;;;;;;350067;28;1230;-75
2023/04/04 10:30:10;;;;;;;;;;;;;;;;;;350869;28;980;-69
2023/04/04 10:30:21;;;;;;;;;;;;;;;;;;351065;28;941;-74
2023/04/04 10:30:38;;;;;;;;;;;;;;;;;;352082;28;977;-72
2023/04/04 10:30:56;;;;;;;;;;;;;;;;;;352437;28;972;-71
2023/04/04 10:31:33;;;;;;;;;;;;;;;;;;352496;28;841;-72
2023/04/04 10:31:46;;;;;;;;;;;;;;;;;;348981;28;913;-69
2023/04/04 10:32:01;;;;;;;;;;;;;;;;;;348171;28;999;-69
2023/04/04 10:32:16;;;;;;;;;;;;;;;;;;348235;28;839;-75
2023/04/04 10:32:31;;;;;;;;;;;;;;;;;;348284;28;1047;-73
2023/04/04 10:33:07;;;;;;;;;;;;;;;;;;348219;28;850;-72
2023/04/04 10:33:44;;;;;;;;;;;;;;;;;;345471;28;946;-71
2023/04/04 10:34:12;;;;;;;;;;;;;;;;;;342750;28;1070;-72
2023/04/04 10:34:39;;;;;;;;;;;;;;;;;;342789;28;1416;-73
2023/04/04 10:35:04;;;;;;;;;;;;;;;;;;345476;28;926;-70
2023/04/04 10:35:16;;;;;;;;;;;;;;;;;;345473;28;850;-69
2023/04/04 10:35:27;;;;;;;;;;;;;;;;;;345143;28;1528;-71
2023/04/04 10:35:39;;;;;;;;;;;;;;;;;;346314;28;1961;-72
2023/04/04 10:35:52;;;;;;;;;;;;;;;;;;346752;28;1062;-71
2023/04/04 10:36:06;;;;;;;;;;;;;;;;;;346838;28;984;-70
2023/04/04 10:36:23;;;;;;;;;;;;;;;;;;346809;28;914;-70
2023/04/04 10:36:54;;;;;;;;;;;;;;;;;;346885;28;894;-68
2023/04/04 10:37:11;;;;;;;;;;;;;;;;;;346366;28;1100;-70
2023/04/04 10:37:28;;;;;;;;;;;;;;;;;;346801;28;1041;-71
2023/04/04 10:37:50;;;;;;;;;;;;;;;;;;346909;28;831;-70
2023/04/04 10:38:02;;;;;;;;;;;;;;;;;;346846;28;1057;-70
2023/04/04 10:38:12;;;;;;;;;;;;;;;;;;346889;28;889;-71
2023/04/04 10:38:26;;;;;;;;;;;;;;;;;;346838;28;898;-72
2023/04/04 10:39:08;;;;;;;;;;;;;;;;;;348182;28;997;-70
2023/04/04 10:39:37;;;;;;;;;;;;;;;;;;342848;28;986;-72
2023/04/04 10:39:52;;;;;;;;;;;;;;;;;;342793;28;819;-72
2023/04/04 10:40:31;;;;;;;;;;;;;;;;;;342860;28;811;-69
2023/04/04 10:40:43;;;;;;;;;;;;;;;;;;340033;29;1130;-73
2023/04/04 10:40:57;;;;;;;;;;;;;;;;;;340200;29;1042;-68
2023/04/04 10:41:09;;;;;;;;;;;;;;;;;;339334;29;1535;-70
2023/04/04 10:41:21;;;;;;;;;;;;;;;;;;340126;29;914;-68
2023/04/04 10:41:31;;;;;;;;;;;;;;;;;;340124;29;994;-69
2023/04/04 10:41:44;;;;;;;;;;;;;;;;;;340167;29;792;-70
2023/04/04 10:41:56;;;;;;;;;;;;;;;;;;340189;29;926;-69
2023/04/04 10:42:06;;;;;;;;;;;;;;;;;;340133;29;964;-70
2023/04/04 10:42:17;;;;;;;;;;;;;;;;;;341512;29;1021;-72
2023/04/04 10:42:30;;;;;;;;;;;;;;;;;;341491;29;894;-68
2023/04/04 10:42:44;;;;;;;;;;;;;;;;;;341459;29;966;-72
2023/04/04 10:42:56;;;;;;;;;;;;;;;;;;341507;29;986;-71
2023/04/04 10:43:07;;;;;;;;;;;;;;;;;;341432;29;934;-72
2023/04/04 10:43:23;;;;;;;;;;;;;;;;;;341324;29;827;-70
2023/04/04 10:43:39;;;;;;;;;;;;;;;;;;341088;29;1228;-69
2023/04/04 10:43:50;;;;;;;;;;;;;;;;;;341889;28;1139;-72
2023/04/04 10:44:09;;;;;;;;;;;;;;;;;;342806;28;926;-68
2023/04/04 10:44:28;;;;;;;;;;;;;;;;;;342797;28;926;-69
2023/04/04 10:44:39;;;;;;;;;;;;;;;;;;342803;28;938;-69
2023/04/04 10:44:50;;;;;;;;;;;;;;;;;;342856;28;819;-68
2023/04/04 10:45:01;;;;;;;;;;;;;;;;;;342804;28;919;-70
2023/04/04 10:45:15;;;;;;;;;;;;;;;;;;342840;28;910;-69
2023/04/04 10:45:26;;;;;;;;;;;;;;;;;;341448;29;957;-70
2023/04/04 10:45:41;;;;;;;;;;;;;;;;;;341465;29;981;-72
2023/04/04 10:45:51;;;;;;;;;;;;;;;;;;341394;28;910;-71
2023/04/04 10:46:07;;;;;;;;;;;;;;;;;;341438;29;982;-69
2023/04/04 10:46:19;;;;;;;;;;;;;;;;;;341452;29;937;-72
2023/04/04 10:46:31;;;;;;;;;;;;;;;;;;341460;29;835;-71
2023/04/04 10:46:45;;;;;;;;;;;;;;;;;;341452;29;879;-72
2023/04/04 10:46:57;;;;;;;;;;;;;;;;;;341372;29;1504;-72
2023/04/04 10:47:21;;;;;;;;;;;;;;;;;;341375;29;890;-73
2023/04/04 10:47:32;;;;;;;;;;;;;;;;;;341532;29;895;-71
2023/04/04 10:47:43;;;;;;;;;;;;;;;;;;342788;28;1008;-70
2023/04/04 10:47:54;;;;;;;;;;;;;;;;;;342699;28;938;-71
2023/04/04 10:48:05;;;;;;;;;;;;;;;;;;342838;28;800;-72
2023/04/04 10:48:15;;;;;;;;;;;;;;;;;;342734;28;973;-73
2023/04/04 10:48:27;;;;;;;;;;;;;;;;;;342780;28;906;-73
2023/04/04 10:48:37;;;;;;;;;;;;;;;;;;342787;28;875;-71
2023/04/04 10:48:48;;;;;;;;;;;;;;;;;;343015;28;894;-72
2023/04/04 10:48:59;;;;;;;;;;;;;;;;;;344165;28;933;-72
2023/04/04 10:49:09;;;;;;;;;;;;;;;;;;343388;28;1352;-72
2023/04/04 10:49:21;;;;;;;;;;;;;;;;;;342523;28;938;-70
2023/04/04 10:49:32;;;;;;;;;;;;;;;;;;341476;29;823;-72
2023/04/04 10:49:44;;;;;;;;;;;;;;;;;;340235;29;807;-72
2023/04/04 10:49:55;;;;;;;;;;;;;;;;;;340085;29;981;-73
2023/04/04 10:50:07;;;;;;;;;;;;;;;;;;340137;29;962;-70
2023/04/04 10:50:19;;;;;;;;;;;;;;;;;;339277;29;1412;-68
2023/04/04 10:50:32;;;;;;;;;;;;;;;;;;340118;29;935;-69
2023/04/04 10:50:42;;;;;;;;;;;;;;;;;;340012;29;1005;-68
2023/04/04 10:50:54;;;;;;;;;;;;;;;;;;339265;29;1412;-71
2023/04/04 10:51:05;;;;;;;;;;;;;;;;;;340215;29;879;-71
2023/04/04 10:51:16;;;;;;;;;;;;;;;;;;340774;29;922;-66
2023/04/04 10:51:26;;;;;;;;;;;;;;;;;;341939;28;862;-70
2023/04/04 10:51:37;;;;;;;;;;;;;;;;;;342798;28;958;-73
2023/04/04 10:51:48;;;;;;;;;;;;;;;;;;342818;28;966;-68
2023/04/04 10:51:59;;;;;;;;;;;;;;;;;;342760;28;898;-72
2023/04/04 10:52:12;;;;;;;;;;;;;;;;;;342786;28;922;-73
2023/04/04 10:52:23;;;;;;;;;;;;;;;;;;342781;28;705;-67
2023/04/04 10:52:35;;;;;;;;;;;;;;;;;;342759;28;982;-64
2023/04/04 10:52:46;;;;;;;;;;;;;;;;;;342790;28;936;-70
2023/04/04 10:52:58;;;;;;;;;;;;;;;;;;342799;28;965;-69
2023/04/04 10:53:09;;;;;;;;;;;;;;;;;;342851;28;1069;-70
2023/04/04 10:53:21;;;;;;;;;;;;;;;;;;342776;28;946;-69
2023/04/04 10:53:32;;;;;;;;;;;;;;;;;;342807;28;974;-73
2023/04/04 10:53:43;;;;;;;;;;;;;;;;;;342746;28;811;-72
2023/04/04 10:53:54;;;;;;;;;;;;;;;;;;342795;28;891;-71
2023/04/04 10:54:05;;;;;;;;;;;;;;;;;;342363;28;799;-71
2023/04/04 10:54:16;;;;;;;;;;;;;;;;;;342796;28;942;-72
2023/04/04 10:54:27;;;;;;;;;;;;;;;;;;342811;28;839;-71
2023/04/04 10:54:39;;;;;;;;;;;;;;;;;;342756;28;950;-71
2023/04/04 10:54:53;;;;;;;;;;;;;;;;;;342801;28;902;-72
2023/04/04 10:55:05;;;;;;;;;;;;;;;;;;342815;28;1025;-72
2023/04/04 10:55:16;;;;;;;;;;;;;;;;;;342755;28;914;-69
2023/04/04 10:55:27;;;;;;;;;;;;;;;;;;343323;28;866;-69
2023/04/04 10:55:39;;;;;;;;;;;;;;;;;;344064;28;1906;-68
2023/04/04 10:55:51;;;;;;;;;;;;;;;;;;344034;28;827;-73
2023/04/04 10:56:02;;;;;;;;;;;;;;;;;;344093;28;889;-70
2023/04/04 10:56:12;;;;;;;;;;;;;;;;;;343440;28;851;-69
2023/04/04 10:56:23;;;;;;;;;;;;;;;;;;342836;28;886;-71
2023/04/04 10:56:35;;;;;;;;;;;;;;;;;;342775;28;870;-72
2023/04/04 10:56:46;;;;;;;;;;;;;;;;;;342792;28;940;-70
2023/04/04 10:57:01;;;;;;;;;;;;;;;;;;342689;28;911;-68
2023/04/04 10:57:12;;;;;;;;;;;;;;;;;;342766;28;1371;-66
2023/04/04 10:57:24;;;;;;;;;;;;;;;;;;342795;28;961;-68
2023/04/04 10:57:39;;;;;;;;;;;;;;;;;;342768;28;926;-66
2023/04/04 10:57:51;;;;;;;;;;;;;;;;;;342835;28;799;-69
2023/04/04 10:58:01;;;;;;;;;;;;;;;;;;342709;28;1010;-70
2023/04/04 10:58:12;;;;;;;;;;;;;;;;;;342743;28;885;-69
2023/04/04 10:58:23;;;;;;;;;;;;;;;;;;342789;28;1211;-67
2023/04/04 10:58:38;;;;;;;;;;;;;;;;;;342817;28;918;-66
2023/04/04 10:58:49;;;;;;;;;;;;;;;;;;342819;28;827;-68
2023/04/04 10:59:12;;;;;;;;;;;;;;;;;;341432;29;986;-70
2023/04/04 10:59:23;;;;;;;;;;;;;;;;;;341464;29;910;-70
2023/04/04 10:59:54;;;;;;;;;;;;;;;;;;341463;29;965;-68
2023/04/04 11:00:09;;;;;;;;;;;;;;;;;;341506;29;764;-69
2023/04/04 11:00:40;;;;;;;;;;;;;;;;;;341462;29;922;-65
2023/04/04 11:00:53;;;;;;;;;;;;;;;;;;341462;29;950;-69
2023/04/04 11:01:06;;;;;;;;;;;;;;;;;;342805;28;894;-69
2023/04/04 11:01:19;;;;;;;;;;;;;;;;;;342766;28;977;-70
2023/04/04 11:01:48;;;;;;;;;;;;;;;;;;342774;28;838;-69
2023/04/04 11:02:00;;;;;;;;;;;;;;;;;;342775;28;1037;-69
2023/04/04 11:02:11;;;;;;;;;;;;;;;;;;342821;28;835;-68
2023/04/04 11:02:40;;;;;;;;;;;;;;;;;;342749;28;930;-68
2023/04/04 11:03:11;;;;;;;;;;;;;;;;;;342786;28;918;-68
2023/04/04 11:03:22;;;;;;;;;;;;;;;;;;341428;29;1109;-66
2023/04/04 11:03:52;;;;;;;;;;;;;;;;;;341433;29;852;-67
2023/04/04 11:04:22;;;;;;;;;;;;;;;;;;341321;29;750;-69
2023/04/04 11:04:33;;;;;;;;;;;;;;;;;;341398;29;1106;-68
2023/04/04 11:04:45;;;;;;;;;;;;;;;;;;341396;29;1060;-66
2023/04/04 11:05:09;;;;;;;;;;;;;;;;;;341448;29;847;-69
2023/04/04 11:05:46;;;;;;;;;;;;;;;;;;341474;29;910;-66
2023/04/04 11:06:00;;;;;;;;;;;;;;;;;;341203;29;1166;-65
2023/04/04 11:06:14;;;;;;;;;;;;;;;;;;342624;28;961;-71
2023/04/04 11:06:44;;;;;;;;;;;;;;;;;;342799;28;831;-70
2023/04/04 11:07:15;;;;;;;;;;;;;;;;;;342782;28;1009;-69
2023/04/04 11:07:27;;;;;;;;;;;;;;;;;;342781;28;1110;-67
2023/04/04 11:07:39;;;;;;;;;;;;;;;;;;342706;28;1030;-63
2023/04/04 11:08:16;;;;;;;;;;;;;;;;;;342765;28;863;-66
2023/04/04 11:08:27;;;;;;;;;;;;;;;;;;338768;29;1035;-66
2023/04/04 11:08:38;;;;;;;;;;;;;;;;;;338762;29;856;-65
2023/04/04 11:08:55;;;;;;;;;;;;;;;;;;338780;29;924;-68
2023/04/04 11:09:10;;;;;;;;;;;;;;;;;;340120;29;915;-69
2023/04/04 11:09:41;;;;;;;;;;;;;;;;;;340050;29;1068;-68
2023/04/04 11:09:55;;;;;;;;;;;;;;;;;;338688;29;1447;-68
2023/04/04 11:10:24;;;;;;;;;;;;;;;;;;338855;29;887;-69
2023/04/04 11:10:36;;;;;;;;;;;;;;;;;;338859;29;816;-70
2023/04/04 11:10:47;;;;;;;;;;;;;;;;;;338828;29;919;-66
2023/04/04 11:10:58;;;;;;;;;;;;;;;;;;338726;29;1081;-67
2023/04/04 11:11:08;;;;;;;;;;;;;;;;;;337557;29;809;-68
2023/04/04 11:11:19;;;;;;;;;;;;;;;;;;337531;29;922;-65
2023/04/04 11:11:50;;;;;;;;;;;;;;;;;;337496;29;856;-70
2023/04/04 11:12:07;;;;;;;;;;;;;;;;;;337562;29;880;-68
2023/04/04 11:12:30;;;;;;;;;;;;;;;;;;337552;29;955;-66
2023/04/04 11:12:43;;;;;;;;;;;;;;;;;;337482;29;927;-66
2023/04/04 11:13:03;;;;;;;;;;;;;;;;;;337556;29;805;-73
2023/04/04 11:13:17;;;;;;;;;;;;;;;;;;337510;29;812;-66
2023/04/04 11:13:32;;;;;;;;;;;;;;;;;;337538;29;1668;-68
2023/04/04 11:13:57;;;;;;;;;;;;;;;;;;337551;29;875;-68
2023/04/04 11:14:09;;;;;;;;;;;;;;;;;;337524;29;994;-65
2023/04/04 11:14:27;;;;;;;;;;;;;;;;;;337431;29;923;-67
2023/04/04 11:14:38;;;;;;;;;;;;;;;;;;338768;29;883;-66
2023/04/04 11:14:55;;;;;;;;;;;;;;;;;;338838;29;932;-66
2023/04/04 11:15:08;;;;;;;;;;;;;;;;;;338809;29;816;-65
2023/04/04 11:15:22;;;;;;;;;;;;;;;;;;338771;29;1041;-67
2023/04/04 11:15:51;;;;;;;;;;;;;;;;;;338865;29;816;-66
2023/04/04 11:16:20;;;;;;;;;;;;;;;;;;338824;29;952;-66
2023/04/04 11:16:43;;;;;;;;;;;;;;;;;;338693;29;919;-66
2023/04/04 11:16:57;;;;;;;;;;;;;;;;;;337561;29;919;-65
2023/04/04 11:17:08;;;;;;;;;;;;;;;;;;337538;29;931;-64
2023/04/04 11:17:34;;;;;;;;;;;;;;;;;;337521;29;895;-67
2023/04/04 11:18:09;;;;;;;;;;;;;;;;;;337482;29;895;-65
2023/04/04 11:18:20;;;;;;;;;;;;;;;;;;341462;29;970;-66
2023/04/04 11:18:50;;;;;;;;;;;;;;;;;;341335;29;1153;-64
2023/04/04 11:19:01;;;;;;;;;;;;;;;;;;340101;29;1121;-63
2023/04/04 11:19:13;;;;;;;;;;;;;;;;;;340149;29;895;-66
2023/04/04 11:19:25;;;;;;;;;;;;;;;;;;340069;29;1124;-65
2023/04/04 11:19:35;;;;;;;;;;;;;;;;;;340084;29;907;-62
2023/04/04 11:20:06;;;;;;;;;;;;;;;;;;340098;29;793;-65
2023/04/04 11:20:23;;;;;;;;;;;;;;;;;;338326;29;1947;-66
2023/04/04 11:20:35;;;;;;;;;;;;;;;;;;338761;29;1191;-65
2023/04/04 11:20:47;;;;;;;;;;;;;;;;;;338800;29;839;-63
2023/04/04 11:21:01;;;;;;;;;;;;;;;;;;338782;29;1099;-64
2023/04/04 11:21:17;;;;;;;;;;;;;;;;;;338841;29;795;-67
2023/04/04 11:21:30;;;;;;;;;;;;;;;;;;338819;29;958;-66
2023/04/04 11:21:45;;;;;;;;;;;;;;;;;;338740;29;1268;-65
2023/04/04 11:21:56;;;;;;;;;;;;;;;;;;338788;29;906;-62
2023/04/04 11:22:07;;;;;;;;;;;;;;;;;;338739;29;1006;-66
2023/04/04 11:22:17;;;;;;;;;;;;;;;;;;340051;29;965;-65
2023/04/04 11:22:28;;;;;;;;;;;;;;;;;;340107;29;896;-66
2023/04/04 11:22:40;;;;;;;;;;;;;;;;;;340077;29;859;-66
2023/04/04 11:23:13;;;;;;;;;;;;;;;;;;340061;29;788;-66
2023/04/04 11:23:25;;;;;;;;;;;;;;;;;;338735;29;926;-67
2023/04/04 11:24:08;;;;;;;;;;;;;;;;;;338800;29;872;-62
2023/04/04 11:24:19;;;;;;;;;;;;;;;;;;337529;29;924;-66
2023/04/04 11:24:29;;;;;;;;;;;;;;;;;;337456;29;939;-65
2023/04/04 11:24:41;;;;;;;;;;;;;;;;;;337496;29;943;-65
2023/04/04 11:24:59;;;;;;;;;;;;;;;;;;337473;29;805;-60
2023/04/04 11:25:29;;;;;;;;;;;;;;;;;;337454;29;1079;-67
2023/04/04 11:25:40;;;;;;;;;;;;;;;;;;336192;29;983;-67
2023/04/04 11:25:58;;;;;;;;;;;;;;;;;;336222;29;943;-66
2023/04/04 11:26:09;;;;;;;;;;;;;;;;;;336227;29;972;-67
2023/04/04 11:26:46;;;;;;;;;;;;;;;;;;336204;29;923;-64
2023/04/04 11:26:57;;;;;;;;;;;;;;;;;;334869;29;957;-64
2023/04/04 11:27:07;;;;;;;;;;;;;;;;;;334858;29;1156;-64
2023/04/04 11:27:17;;;;;;;;;;;;;;;;;;335123;29;975;-61
2023/04/04 11:27:29;;;;;;;;;;;;;;;;;;335124;29;971;-65
2023/04/04 11:27:39;;;;;;;;;;;;;;;;;;335342;29;836;-61
2023/04/04 11:27:53;;;;;;;;;;;;;;;;;;335310;29;1076;-65
2023/04/04 11:28:05;;;;;;;;;;;;;;;;;;335322;29;887;-64
2023/04/04 11:28:34;;;;;;;;;;;;;;;;;;335420;29;789;-65
2023/04/04 11:28:45;;;;;;;;;;;;;;;;;;335231;29;1058;-67
2023/04/04 11:28:56;;;;;;;;;;;;;;;;;;335364;29;967;-65
2023/04/04 11:29:07;;;;;;;;;;;;;;;;;;334086;29;849;-63
2023/04/04 11:29:21;;;;;;;;;;;;;;;;;;333065;29;920;-63
2023/04/04 11:29:53;;;;;;;;;;;;;;;;;;332790;29;915;-63
2023/04/04 11:30:12;;;;;;;;;;;;;;;;;;332792;29;928;-65
2023/04/04 11:30:23;;;;;;;;;;;;;;;;;;332881;29;885;-65
2023/04/04 11:30:37;;;;;;;;;;;;;;;;;;332814;29;1136;-66
2023/04/04 11:30:47;;;;;;;;;;;;;;;;;;332794;29;931;-64
2023/04/04 11:31:17;;;;;;;;;;;;;;;;;;332849;29;825;-63
2023/04/04 11:31:28;;;;;;;;;;;;;;;;;;334132;29;954;-67
2023/04/04 11:31:41;;;;;;;;;;;;;;;;;;334109;29;987;-61
2023/04/04 11:31:52;;;;;;;;;;;;;;;;;;334010;29;1031;-65
2023/04/04 11:32:02;;;;;;;;;;;;;;;;;;334054;29;923;-66
2023/04/04 11:32:31;;;;;;;;;;;;;;;;;;334100;29;975;-65
2023/04/04 11:32:45;;;;;;;;;;;;;;;;;;334072;29;926;-61
2023/04/04 11:32:58;;;;;;;;;;;;;;;;;;334075;29;1046;-65
2023/04/04 11:33:10;;;;;;;;;;;;;;;;;;334049;29;885;-63
2023/04/04 11:33:27;;;;;;;;;;;;;;;;;;334092;29;924;-68
2023/04/04 11:33:56;;;;;;;;;;;;;;;;;;332812;29;864;-63
2023/04/04 11:34:07;;;;;;;;;;;;;;;;;;332760;29;956;-67
2023/04/04 11:34:30;;;;;;;;;;;;;;;;;;332809;29;1054;-65
2023/04/04 11:34:41;;;;;;;;;;;;;;;;;;332841;29;975;-62
2023/04/04 11:34:51;;;;;;;;;;;;;;;;;;332747;29;917;-68
2023/04/04 11:35:03;;;;;;;;;;;;;;;;;;332676;29;904;-63
2023/04/04 11:35:14;;;;;;;;;;;;;;;;;;332723;29;983;-65
2023/04/04 11:35:26;;;;;;;;;;;;;;;;;;332845;29;923;-66
2023/04/04 11:35:39;;;;;;;;;;;;;;;;;;332723;29;1912;-68
2023/04/04 11:35:50;;;;;;;;;;;;;;;;;;331559;29;920;-66
2023/04/04 11:36:03;;;;;;;;;;;;;;;;;;331577;29;786;-68
2023/04/04 11:36:43;;;;;;;;;;;;;;;;;;331545;29;770;-67
2023/04/04 11:36:54;;;;;;;;;;;;;;;;;;331609;29;1214;-67
2023/04/04 11:37:14;;;;;;;;;;;;;;;;;;332700;29;1084;-64
2023/04/04 11:37:24;;;;;;;;;;;;;;;;;;332855;29;844;-69
2023/04/04 11:37:53;;;;;;;;;;;;;;;;;;332771;29;840;-61
2023/04/04 11:38:11;;;;;;;;;;;;;;;;;;333949;29;1274;-65
2023/04/04 11:38:21;;;;;;;;;;;;;;;;;;334058;29;860;-65
2023/04/04 11:38:32;;;;;;;;;;;;;;;;;;333998;29;849;-68
2023/04/04 11:38:48;;;;;;;;;;;;;;;;;;334103;29;900;-69
2023/04/04 11:38:58;;;;;;;;;;;;;;;;;;334037;29;980;-63
2023/04/04 11:39:35;;;;;;;;;;;;;;;;;;334077;29;1060;-66
2023/04/04 11:39:57;;;;;;;;;;;;;;;;;;334885;29;954;-62
2023/04/04 11:40:10;;;;;;;;;;;;;;;;;;334052;29;928;-65
2023/04/04 11:40:33;;;;;;;;;;;;;;;;;;334071;29;819;-67
2023/04/04 11:40:51;;;;;;;;;;;;;;;;;;334048;29;976;-68
2023/04/04 11:41:02;;;;;;;;;;;;;;;;;;334067;29;1138;-64
2023/04/04 11:41:13;;;;;;;;;;;;;;;;;;334084;29;1062;-65
2023/04/04 11:41:41;;;;;;;;;;;;;;;;;;334067;29;1775;-66
2023/04/04 11:42:12;;;;;;;;;;;;;;;;;;336630;29;824;-63
2023/04/04 11:42:23;;;;;;;;;;;;;;;;;;336595;29;864;-66
2023/04/04 11:42:37;;;;;;;;;;;;;;;;;;336536;29;1055;-64
2023/04/04 11:42:54;;;;;;;;;;;;;;;;;;336654;29;803;-65
2023/04/04 11:43:09;;;;;;;;;;;;;;;;;;335246;29;1182;-66
2023/04/04 11:43:19;;;;;;;;;;;;;;;;;;335349;29;816;-63
2023/04/04 11:43:32;;;;;;;;;;;;;;;;;;335355;29;899;-65
2023/04/04 11:43:48;;;;;;;;;;;;;;;;;;335267;29;832;-68
2023/04/04 11:44:03;;;;;;;;;;;;;;;;;;335374;29;804;-68
2023/04/04 11:44:16;;;;;;;;;;;;;;;;;;335311;29;907;-68
2023/04/04 11:44:30;;;;;;;;;;;;;;;;;;335336;29;935;-68
2023/04/04 11:44:41;;;;;;;;;;;;;;;;;;335296;29;832;-64
2023/04/04 11:45:15;;;;;;;;;;;;;;;;;;335312;29;806;-63
2023/04/04 11:45:26;;;;;;;;;;;;;;;;;;332832;29;805;-67
2023/04/04 11:45:37;;;;;;;;;;;;;;;;;;332687;29;1239;-67
2023/04/04 11:45:48;;;;;;;;;;;;;;;;;;332781;29;987;-64
2023/04/04 11:46:06;;;;;;;;;;;;;;;;;;332511;29;1199;-65
2023/04/04 11:46:17;;;;;;;;;;;;;;;;;;332824;29;785;-66
2023/04/04 11:46:28;;;;;;;;;;;;;;;;;;332074;29;1064;-67
2023/04/04 11:46:39;;;;;;;;;;;;;;;;;;331588;29;809;-68
2023/04/04 11:47:01;;;;;;;;;;;;;;;;;;331548;29;770;-66
2023/04/04 11:47:12;;;;;;;;;;;;;;;;;;331526;29;853;-68
2023/04/04 11:47:23;;;;;;;;;;;;;;;;;;330220;30;1441;-68
2023/04/04 11:47:34;;;;;;;;;;;;;;;;;;330356;30;816;-67
2023/04/04 11:47:48;;;;;;;;;;;;;;;;;;329070;30;880;-68
2023/04/04 11:47:59;;;;;;;;;;;;;;;;;;330163;30;905;-65
2023/04/04 11:48:12;;;;;;;;;;;;;;;;;;330274;30;1086;-68
2023/04/04 11:48:23;;;;;;;;;;;;;;;;;;330365;30;888;-68
2023/04/04 11:48:34;;;;;;;;;;;;;;;;;;330355;30;849;-66
2023/04/04 11:48:46;;;;;;;;;;;;;;;;;;330341;30;884;-63
2023/04/04 11:48:58;;;;;;;;;;;;;;;;;;330308;30;955;-67
2023/04/04 11:49:09;;;;;;;;;;;;;;;;;;330261;30;809;-67
2023/04/04 11:49:24;;;;;;;;;;;;;;;;;;330321;30;857;-69
2023/04/04 11:49:39;;;;;;;;;;;;;;;;;;328971;30;1266;-66
2023/04/04 11:49:52;;;;;;;;;;;;;;;;;;330297;29;1077;-66
2023/04/04 11:50:07;;;;;;;;;;;;;;;;;;331488;29;938;-64
2023/04/04 11:50:18;;;;;;;;;;;;;;;;;;331482;29;801;-67
2023/04/04 11:50:33;;;;;;;;;;;;;;;;;;331595;29;904;-67
2023/04/04 11:50:48;;;;;;;;;;;;;;;;;;331637;29;556;-67
2023/04/04 11:51:01;;;;;;;;;;;;;;;;;;331569;29;873;-66
2023/04/04 11:51:12;;;;;;;;;;;;;;;;;;331595;29;817;-62
2023/04/04 11:51:24;;;;;;;;;;;;;;;;;;331522;29;1786;-67
2023/04/04 11:51:35;;;;;;;;;;;;;;;;;;332636;29;919;-65
2023/04/04 11:51:46;;;;;;;;;;;;;;;;;;332798;29;857;-63
2023/04/04 11:51:57;;;;;;;;;;;;;;;;;;332762;29;1099;-67
2023/04/04 11:52:09;;;;;;;;;;;;;;;;;;332787;29;920;-63
2023/04/04 11:52:20;;;;;;;;;;;;;;;;;;332739;29;915;-67
2023/04/04 11:52:34;;;;;;;;;;;;;;;;;;332751;29;907;-66
2023/04/04 11:52:45;;;;;;;;;;;;;;;;;;332863;29;884;-65
2023/04/04 11:52:55;;;;;;;;;;;;;;;;;;332812;29;971;-61
2023/04/04 11:53:07;;;;;;;;;;;;;;;;;;332830;29;907;-67
2023/04/04 11:53:17;;;;;;;;;;;;;;;;;;332762;29;845;-67
2023/04/04 11:53:29;;;;;;;;;;;;;;;;;;332756;29;987;-67
2023/04/04 11:53:41;;;;;;;;;;;;;;;;;;332793;29;932;-65
2023/04/04 11:53:52;;;;;;;;;;;;;;;;;;332767;29;861;-68
2023/04/04 11:54:02;;;;;;;;;;;;;;;;;;332757;29;915;-66
2023/04/04 11:54:16;;;;;;;;;;;;;;;;;;332845;29;825;-67
2023/04/04 11:54:28;;;;;;;;;;;;;;;;;;332748;29;856;-66
2023/04/04 11:54:39;;;;;;;;;;;;;;;;;;332714;29;1034;-66
2023/04/04 11:54:50;;;;;;;;;;;;;;;;;;331460;29;1521;-62
2023/04/04 11:55:01;;;;;;;;;;;;;;;;;;331559;29;924;-65
2023/04/04 11:55:18;;;;;;;;;;;;;;;;;;331579;29;798;-68
2023/04/04 11:55:29;;;;;;;;;;;;;;;;;;331491;29;936;-67
2023/04/04 11:55:42;;;;;;;;;;;;;;;;;;331391;29;1966;-68
2023/04/04 11:55:55;;;;;;;;;;;;;;;;;;331504;29;1000;-64
2023/04/04 11:56:06;;;;;;;;;;;;;;;;;;330310;30;896;-64
2023/04/04 11:56:18;;;;;;;;;;;;;;;;;;330306;30;1080;-67
2023/04/04 11:56:32;;;;;;;;;;;;;;;;;;330323;30;1146;-65
2023/04/04 11:56:44;;;;;;;;;;;;;;;;;;330373;29;961;-66
2023/04/04 11:56:54;;;;;;;;;;;;;;;;;;331603;29;864;-67
2023/04/04 11:57:05;;;;;;;;;;;;;;;;;;331501;29;817;-65
2023/04/04 11:57:19;;;;;;;;;;;;;;;;;;333103;29;998;-64
2023/04/04 11:57:29;;;;;;;;;;;;;;;;;;334092;29;844;-64
2023/04/04 11:57:40;;;;;;;;;;;;;;;;;;334014;29;983;-63
2023/04/04 11:57:52;;;;;;;;;;;;;;;;;;334041;29;837;-65
2023/04/04 11:58:20;;;;;;;;;;;;;;;;;;334072;29;983;-64
2023/04/04 11:58:34;;;;;;;;;;;;;;;;;;335293;29;1173;-64
2023/04/04 11:58:47;;;;;;;;;;;;;;;;;;335320;29;919;-65